sensor_id;sensor_type;location;lat;lon;timestamp;temperature;humidity
7572;DHT22;3827;49.928;8.548;2023-09-30T00:00:10;15.90;99.90
7572;DHT22;3827;49.928;8.548;2023-09-30T00:02:37;15.90;99.90
7572;DHT22;3827;49.928;8.548;2023-09-30T00:05:04;15.90;99.90
7572;DHT22;3827;49.928;8.548;2023-09-30T00:07:31;15.90;99.90
7572;DHT22;3827;49.928;8.548;2023-09-30T00:09:59;15.90;99.90
7572;DHT22;3827;49.928;8.548;2023-09-30T00:12:26;15.80;99.90
7572;DHT22;3827;49.928;8.548;2023-09-30T00:14:53;15.80;99.90
7572;DHT22;3827;49.928;8.548;2023-09-30T00:17:20;15.70;99.90
7572;DHT22;3827;49.928;8.548;2023-09-30T00:19:47;15.70;99.90
7572;DHT22;3827;49.928;8.548;2023-09-30T00:22:14;15.70;99.90
7572;DHT22;3827;49.928;8.548;2023-09-30T00:24:41;15.70;99.90
7572;DHT22;3827;49.928;8.548;2023-09-30T00:27:09;15.60;99.90
7572;DHT22;3827;49.928;8.548;2023-09-30T00:29:35;15.60;99.90
7572;DHT22;3827;49.928;8.548;2023-09-30T00:32:03;15.60;99.90
7572;DHT22;3827;49.928;8.548;2023-09-30T00:34:32;15.50;99.90
7572;DHT22;3827;49.928;8.548;2023-09-30T00:36:59;15.50;99.90
7572;DHT22;3827;49.928;8.548;2023-09-30T00:39:26;15.50;99.90
7572;DHT22;3827;49.928;8.548;2023-09-30T00:41:55;15.50;99.90
7572;DHT22;3827;49.928;8.548;2023-09-30T00:44:25;15.50;99.90
7572;DHT22;3827;49.928;8.548;2023-09-30T00:46:52;15.50;99.90
7572;DHT22;3827;49.928;8.548;2023-09-30T00:49:21;15.50;99.90
7572;DHT22;3827;49.928;8.548;2023-09-30T00:51:49;15.50;99.90
7572;DHT22;3827;49.928;8.548;2023-09-30T00:54:17;16.00;99.90
7572;DHT22;3827;49.928;8.548;2023-09-30T00:56:45;15.50;99.90
7572;DHT22;3827;49.928;8.548;2023-09-30T00:59:12;15.40;99.90
7572;DHT22;3827;49.928;8.548;2023-09-30T01:01:41;15.40;99.90
7572;DHT22;3827;49.928;8.548;2023-09-30T01:04:09;15.50;99.90
7572;DHT22;3827;49.928;8.548;2023-09-30T01:06:36;15.50;99.90
7572;DHT22;3827;49.928;8.548;2023-09-30T01:09:03;15.70;99.90
7572;DHT22;3827;49.928;8.548;2023-09-30T01:11:30;15.40;99.90
7572;DHT22;3827;49.928;8.548;2023-09-30T01:13:57;15.40;99.90
7572;DHT22;3827;49.928;8.548;2023-09-30T01:16:24;15.40;99.90
7572;DHT22;3827;49.928;8.548;2023-09-30T01:18:52;15.40;99.90
7572;DHT22;3827;49.928;8.548;2023-09-30T01:21:19;15.40;99.90
7572;DHT22;3827;49.928;8.548;2023-09-30T01:23:47;15.40;99.90
7572;DHT22;3827;49.928;8.548;2023-09-30T01:26:14;15.40;99.90
7572;DHT22;3827;49.928;8.548;2023-09-30T01:28:41;15.40;99.90
7572;DHT22;3827;49.928;8.548;2023-09-30T01:31:08;15.40;99.90
7572;DHT22;3827;49.928;8.548;2023-09-30T01:33:35;15.40;99.90
7572;DHT22;3827;49.928;8.548;2023-09-30T01:36:01;15.40;99.90
7572;DHT22;3827;49.928;8.548;2023-09-30T01:38:28;15.40;99.90
7572;DHT22;3827;49.928;8.548;2023-09-30T01:40:56;15.40;99.90
7572;DHT22;3827;49.928;8.548;2023-09-30T01:43:23;15.40;99.90
7572;DHT22;3827;49.928;8.548;2023-09-30T01:45:50;15.40;99.90
7572;DHT22;3827;49.928;8.548;2023-09-30T01:48:17;15.40;99.90
7572;DHT22;3827;49.928;8.548;2023-09-30T01:50:44;15.40;99.90
7572;DHT22;3827;49.928;8.548;2023-09-30T01:53:10;15.40;99.90
7572;DHT22;3827;49.928;8.548;2023-09-30T01:55:37;15.30;99.90
7572;DHT22;3827;49.928;8.548;2023-09-30T01:58:05;15.30;99.90
7572;DHT22;3827;49.928;8.548;2023-09-30T02:00:33;15.30;99.90
7572;DHT22;3827;49.928;8.548;2023-09-30T02:03:00;15.30;99.90
7572;DHT22;3827;49.928;8.548;2023-09-30T02:05:27;15.20;99.90
7572;DHT22;3827;49.928;8.548;2023-09-30T02:07:54;15.20;99.90
7572;DHT22;3827;49.928;8.548;2023-09-30T02:10:21;15.20;99.90
7572;DHT22;3827;49.928;8.548;2023-09-30T02:12:47;15.20;99.90
7572;DHT22;3827;49.928;8.548;2023-09-30T02:15:16;15.10;99.90
7572;DHT22;3827;49.928;8.548;2023-09-30T02:17:43;15.10;99.90
7572;DHT22;3827;49.928;8.548;2023-09-30T02:20:11;15.10;99.90
7572;DHT22;3827;49.928;8.548;2023-09-30T02:22:41;15.10;99.90
7572;DHT22;3827;49.928;8.548;2023-09-30T02:25:09;15.00;99.90
7572;DHT22;3827;49.928;8.548;2023-09-30T02:27:38;15.00;99.90
7572;DHT22;3827;49.928;8.548;2023-09-30T02:30:06;15.00;99.90
7572;DHT22;3827;49.928;8.548;2023-09-30T02:32:34;14.90;99.90
7572;DHT22;3827;49.928;8.548;2023-09-30T02:35:01;14.90;99.90
7572;DHT22;3827;49.928;8.548;2023-09-30T02:37:32;15.00;99.90
7572;DHT22;3827;49.928;8.548;2023-09-30T02:40:01;15.00;99.90
7572;DHT22;3827;49.928;8.548;2023-09-30T02:42:29;15.00;99.90
7572;DHT22;3827;49.928;8.548;2023-09-30T02:44:56;15.00;99.90
7572;DHT22;3827;49.928;8.548;2023-09-30T02:47:22;15.00;99.90
7572;DHT22;3827;49.928;8.548;2023-09-30T02:49:50;15.00;99.90
7572;DHT22;3827;49.928;8.548;2023-09-30T02:52:17;15.00;99.90
7572;DHT22;3827;49.928;8.548;2023-09-30T02:54:44;15.00;99.90
7572;DHT22;3827;49.928;8.548;2023-09-30T02:57:11;15.00;99.90
7572;DHT22;3827;49.928;8.548;2023-09-30T02:59:38;15.40;99.90
7572;DHT22;3827;49.928;8.548;2023-09-30T03:02:05;14.90;99.90
7572;DHT22;3827;49.928;8.548;2023-09-30T03:04:32;15.20;99.90
7572;DHT22;3827;49.928;8.548;2023-09-30T03:07:00;14.90;99.90
7572;DHT22;3827;49.928;8.548;2023-09-30T03:09:27;14.80;99.90
7572;DHT22;3827;49.928;8.548;2023-09-30T03:11:54;14.80;99.90
7572;DHT22;3827;49.928;8.548;2023-09-30T03:14:21;14.70;99.90
7572;DHT22;3827;49.928;8.548;2023-09-30T03:16:48;14.70;99.90
7572;DHT22;3827;49.928;8.548;2023-09-30T03:19:15;14.60;99.90
7572;DHT22;3827;49.928;8.548;2023-09-30T03:21:43;14.50;99.90
7572;DHT22;3827;49.928;8.548;2023-09-30T03:24:11;14.50;99.90
7572;DHT22;3827;49.928;8.548;2023-09-30T03:26:38;14.40;99.90
7572;DHT22;3827;49.928;8.548;2023-09-30T03:29:07;14.30;99.90
7572;DHT22;3827;49.928;8.548;2023-09-30T03:31:34;14.20;99.90
7572;DHT22;3827;49.928;8.548;2023-09-30T03:34:02;14.10;99.90
7572;DHT22;3827;49.928;8.548;2023-09-30T03:36:30;14.00;99.90
7572;DHT22;3827;49.928;8.548;2023-09-30T03:38:57;14.00;99.90
7572;DHT22;3827;49.928;8.548;2023-09-30T03:41:32;14.40;99.90
7572;DHT22;3827;49.928;8.548;2023-09-30T03:44:00;13.90;99.90
7572;DHT22;3827;49.928;8.548;2023-09-30T03:46:28;13.90;99.90
7572;DHT22;3827;49.928;8.548;2023-09-30T03:48:55;13.80;99.90
7572;DHT22;3827;49.928;8.548;2023-09-30T03:51:22;13.80;99.90
7572;DHT22;3827;49.928;8.548;2023-09-30T03:53:50;13.80;99.90
7572;DHT22;3827;49.928;8.548;2023-09-30T03:56:17;13.70;99.90
7572;DHT22;3827;49.928;8.548;2023-09-30T03:58:46;13.70;99.90
7572;DHT22;3827;49.928;8.548;2023-09-30T04:01:14;13.70;99.90
7572;DHT22;3827;49.928;8.548;2023-09-30T04:03:42;13.60;99.90
7572;DHT22;3827;49.928;8.548;2023-09-30T04:06:09;13.60;99.90
7572;DHT22;3827;49.928;8.548;2023-09-30T04:08:36;13.50;99.90
7572;DHT22;3827;49.928;8.548;2023-09-30T04:11:03;13.40;99.90
7572;DHT22;3827;49.928;8.548;2023-09-30T04:13:30;13.40;99.90
7572;DHT22;3827;49.928;8.548;2023-09-30T04:16:08;13.40;99.90
7572;DHT22;3827;49.928;8.548;2023-09-30T04:18:34;13.40;99.90
7572;DHT22;3827;49.928;8.548;2023-09-30T04:21:02;13.30;99.90
7572;DHT22;3827;49.928;8.548;2023-09-30T04:23:29;13.30;99.90
7572;DHT22;3827;49.928;8.548;2023-09-30T04:25:55;13.30;99.90
7572;DHT22;3827;49.928;8.548;2023-09-30T04:28:22;13.20;99.90
7572;DHT22;3827;49.928;8.548;2023-09-30T04:30:50;13.20;99.90
7572;DHT22;3827;49.928;8.548;2023-09-30T04:33:18;10.30;99.90
7572;DHT22;3827;49.928;8.548;2023-09-30T04:35:47;13.20;99.90
7572;DHT22;3827;49.928;8.548;2023-09-30T04:38:14;13.70;99.90
7572;DHT22;3827;49.928;8.548;2023-09-30T04:40:41;13.30;99.90
7572;DHT22;3827;49.928;8.548;2023-09-30T04:43:09;13.30;99.90
7572;DHT22;3827;49.928;8.548;2023-09-30T04:45:36;13.30;99.90
7572;DHT22;3827;49.928;8.548;2023-09-30T04:48:03;13.40;99.90
7572;DHT22;3827;49.928;8.548;2023-09-30T04:50:31;13.40;99.90
7572;DHT22;3827;49.928;8.548;2023-09-30T04:52:58;13.40;99.90
7572;DHT22;3827;49.928;8.548;2023-09-30T04:55:25;13.30;99.90
7572;DHT22;3827;49.928;8.548;2023-09-30T04:57:52;13.40;99.90
7572;DHT22;3827;49.928;8.548;2023-09-30T05:00:19;13.30;99.90
7572;DHT22;3827;49.928;8.548;2023-09-30T05:02:50;13.30;99.90
7572;DHT22;3827;49.928;8.548;2023-09-30T05:05:17;13.80;99.90
7572;DHT22;3827;49.928;8.548;2023-09-30T05:07:45;13.10;99.90
7572;DHT22;3827;49.928;8.548;2023-09-30T05:10:13;13.10;99.90
7572;DHT22;3827;49.928;8.548;2023-09-30T05:12:42;13.00;99.90
7572;DHT22;3827;49.928;8.548;2023-09-30T05:15:11;12.90;99.90
7572;DHT22;3827;49.928;8.548;2023-09-30T05:17:38;12.90;99.90
7572;DHT22;3827;49.928;8.548;2023-09-30T05:20:06;12.80;99.90
7572;DHT22;3827;49.928;8.548;2023-09-30T05:22:33;12.80;99.90
7572;DHT22;3827;49.928;8.548;2023-09-30T05:25:01;12.80;99.90
7572;DHT22;3827;49.928;8.548;2023-09-30T05:27:28;12.70;99.90
7572;DHT22;3827;49.928;8.548;2023-09-30T05:29:54;13.00;99.90
7572;DHT22;3827;49.928;8.548;2023-09-30T05:32:21;12.50;99.90
7572;DHT22;3827;49.928;8.548;2023-09-30T05:34:48;12.50;99.90
7572;DHT22;3827;49.928;8.548;2023-09-30T05:37:15;12.50;99.90
7572;DHT22;3827;49.928;8.548;2023-09-30T05:39:43;12.50;99.90
7572;DHT22;3827;49.928;8.548;2023-09-30T05:42:11;12.50;99.90
7572;DHT22;3827;49.928;8.548;2023-09-30T05:44:38;12.50;99.90
7572;DHT22;3827;49.928;8.548;2023-09-30T05:47:05;12.40;99.90
7572;DHT22;3827;49.928;8.548;2023-09-30T05:49:32;12.40;99.90
7572;DHT22;3827;49.928;8.548;2023-09-30T05:51:58;12.40;99.90
7572;DHT22;3827;49.928;8.548;2023-09-30T05:54:25;12.50;99.90
7572;DHT22;3827;49.928;8.548;2023-09-30T05:56:52;13.00;99.90
7572;DHT22;3827;49.928;8.548;2023-09-30T05:59:20;12.60;99.90
7572;DHT22;3827;49.928;8.548;2023-09-30T06:01:47;12.60;99.90
7572;DHT22;3827;49.928;8.548;2023-09-30T06:04:14;12.60;99.90
7572;DHT22;3827;49.928;8.548;2023-09-30T06:06:40;12.70;99.90
7572;DHT22;3827;49.928;8.548;2023-09-30T06:09:08;12.70;99.90
7572;DHT22;3827;49.928;8.548;2023-09-30T06:11:35;12.80;99.90
7572;DHT22;3827;49.928;8.548;2023-09-30T06:14:02;12.90;99.90
7572;DHT22;3827;49.928;8.548;2023-09-30T06:16:33;13.00;99.90
7572;DHT22;3827;49.928;8.548;2023-09-30T06:19:00;13.00;99.90
7572;DHT22;3827;49.928;8.548;2023-09-30T06:21:27;13.20;99.90
7572;DHT22;3827;49.928;8.548;2023-09-30T06:23:55;13.00;99.90
7572;DHT22;3827;49.928;8.548;2023-09-30T06:26:22;13.10;99.90
7572;DHT22;3827;49.928;8.548;2023-09-30T06:28:50;13.10;99.90
7572;DHT22;3827;49.928;8.548;2023-09-30T06:31:19;13.10;99.90
7572;DHT22;3827;49.928;8.548;2023-09-30T06:33:47;13.10;99.90
7572;DHT22;3827;49.928;8.548;2023-09-30T06:36:14;13.10;99.90
7572;DHT22;3827;49.928;8.548;2023-09-30T06:38:43;13.60;99.90
7572;DHT22;3827;49.928;8.548;2023-09-30T06:41:15;13.30;99.90
7572;DHT22;3827;49.928;8.548;2023-09-30T06:43:42;13.30;99.90
7572;DHT22;3827;49.928;8.548;2023-09-30T06:46:09;13.40;99.90
7572;DHT22;3827;49.928;8.548;2023-09-30T06:48:36;13.40;99.90
7572;DHT22;3827;49.928;8.548;2023-09-30T06:51:04;13.40;99.90
7572;DHT22;3827;49.928;8.548;2023-09-30T06:53:31;13.40;99.90
7572;DHT22;3827;49.928;8.548;2023-09-30T06:55:57;13.50;99.90
7572;DHT22;3827;49.928;8.548;2023-09-30T06:58:24;13.60;99.90
7572;DHT22;3827;49.928;8.548;2023-09-30T07:00:52;13.70;99.90
7572;DHT22;3827;49.928;8.548;2023-09-30T07:03:19;13.80;99.90
7572;DHT22;3827;49.928;8.548;2023-09-30T07:05:46;13.80;99.90
7572;DHT22;3827;49.928;8.548;2023-09-30T07:08:16;13.80;99.90
7572;DHT22;3827;49.928;8.548;2023-09-30T07:10:44;13.90;99.90
7572;DHT22;3827;49.928;8.548;2023-09-30T07:13:11;14.00;99.90
7572;DHT22;3827;49.928;8.548;2023-09-30T07:15:38;14.00;99.90
7572;DHT22;3827;49.928;8.548;2023-09-30T07:18:05;14.10;99.90
7572;DHT22;3827;49.928;8.548;2023-09-30T07:20:31;14.10;99.90
7572;DHT22;3827;49.928;8.548;2023-09-30T07:22:59;14.10;99.90
7572;DHT22;3827;49.928;8.548;2023-09-30T07:25:27;14.10;99.90
7572;DHT22;3827;49.928;8.548;2023-09-30T07:27:57;14.20;99.90
7572;DHT22;3827;49.928;8.548;2023-09-30T07:30:24;14.30;99.90
7572;DHT22;3827;49.928;8.548;2023-09-30T07:32:51;14.40;99.90
7572;DHT22;3827;49.928;8.548;2023-09-30T07:35:18;11.60;99.90
7572;DHT22;3827;49.928;8.548;2023-09-30T07:37:45;14.50;99.90
7572;DHT22;3827;49.928;8.548;2023-09-30T07:40:12;14.60;99.90
7572;DHT22;3827;49.928;8.548;2023-09-30T07:42:40;14.50;99.90
7572;DHT22;3827;49.928;8.548;2023-09-30T07:45:08;14.70;99.90
7572;DHT22;3827;49.928;8.548;2023-09-30T07:47:35;14.70;99.90
7572;DHT22;3827;49.928;8.548;2023-09-30T07:50:03;14.90;99.90
7572;DHT22;3827;49.928;8.548;2023-09-30T07:52:35;14.80;99.90
7572;DHT22;3827;49.928;8.548;2023-09-30T07:55:01;14.80;99.90
7572;DHT22;3827;49.928;8.548;2023-09-30T07:57:30;14.90;99.90
7572;DHT22;3827;49.928;8.548;2023-09-30T07:59:58;15.10;99.90
7572;DHT22;3827;49.928;8.548;2023-09-30T08:02:25;15.20;99.90
7572;DHT22;3827;49.928;8.548;2023-09-30T08:04:58;15.20;99.90
7572;DHT22;3827;49.928;8.548;2023-09-30T08:07:26;15.40;99.90
7572;DHT22;3827;49.928;8.548;2023-09-30T08:09:52;15.40;99.90
7572;DHT22;3827;49.928;8.548;2023-09-30T08:12:19;15.60;99.90
7572;DHT22;3827;49.928;8.548;2023-09-30T08:14:46;15.60;99.90
7572;DHT22;3827;49.928;8.548;2023-09-30T08:17:15;15.80;99.90
7572;DHT22;3827;49.928;8.548;2023-09-30T08:19:43;15.90;99.90
7572;DHT22;3827;49.928;8.548;2023-09-30T08:22:10;16.00;99.90
7572;DHT22;3827;49.928;8.548;2023-09-30T08:24:36;16.10;99.90
7572;DHT22;3827;49.928;8.548;2023-09-30T08:27:03;16.20;99.90
7572;DHT22;3827;49.928;8.548;2023-09-30T08:29:33;16.20;99.90
7572;DHT22;3827;49.928;8.548;2023-09-30T08:32:01;16.30;99.90
7572;DHT22;3827;49.928;8.548;2023-09-30T08:34:29;16.30;99.90
7572;DHT22;3827;49.928;8.548;2023-09-30T08:36:56;16.40;99.90
7572;DHT22;3827;49.928;8.548;2023-09-30T08:39:24;16.50;99.90
7572;DHT22;3827;49.928;8.548;2023-09-30T08:41:51;16.50;99.90
7572;DHT22;3827;49.928;8.548;2023-09-30T08:44:19;16.40;99.90
7572;DHT22;3827;49.928;8.548;2023-09-30T08:46:46;16.40;99.90
7572;DHT22;3827;49.928;8.548;2023-09-30T08:49:14;16.50;99.90
7572;DHT22;3827;49.928;8.548;2023-09-30T08:51:43;16.20;99.90
7572;DHT22;3827;49.928;8.548;2023-09-30T08:54:10;16.30;99.90
7572;DHT22;3827;49.928;8.548;2023-09-30T08:56:37;16.30;99.90
7572;DHT22;3827;49.928;8.548;2023-09-30T08:59:07;16.50;99.90
7572;DHT22;3827;49.928;8.548;2023-09-30T09:01:36;16.50;99.90
7572;DHT22;3827;49.928;8.548;2023-09-30T09:04:04;16.70;99.90
7572;DHT22;3827;49.928;8.548;2023-09-30T09:06:33;16.60;99.90
7572;DHT22;3827;49.928;8.548;2023-09-30T09:09:14;16.90;99.90
7572;DHT22;3827;49.928;8.548;2023-09-30T09:11:42;16.90;99.90
7572;DHT22;3827;49.928;8.548;2023-09-30T09:14:09;17.20;99.90
7572;DHT22;3827;49.928;8.548;2023-09-30T09:16:36;17.00;99.90
7572;DHT22;3827;49.928;8.548;2023-09-30T09:19:13;17.10;99.90
7572;DHT22;3827;49.928;8.548;2023-09-30T09:21:54;17.20;99.90
7572;DHT22;3827;49.928;8.548;2023-09-30T09:24:30;17.30;99.90
7572;DHT22;3827;49.928;8.548;2023-09-30T09:27:04;17.50;99.90
7572;DHT22;3827;49.928;8.548;2023-09-30T09:29:32;17.80;99.90
7572;DHT22;3827;49.928;8.548;2023-09-30T09:32:09;17.80;99.90
7572;DHT22;3827;49.928;8.548;2023-09-30T09:34:37;18.00;99.90
7572;DHT22;3827;49.928;8.548;2023-09-30T09:37:14;18.20;99.90
7572;DHT22;3827;49.928;8.548;2023-09-30T09:39:50;18.30;99.90
7572;DHT22;3827;49.928;8.548;2023-09-30T09:42:27;18.30;99.90
7572;DHT22;3827;49.928;8.548;2023-09-30T09:44:56;17.90;99.90
7572;DHT22;3827;49.928;8.548;2023-09-30T09:47:24;17.90;99.90
7572;DHT22;3827;49.928;8.548;2023-09-30T09:49:51;18.10;99.90
7572;DHT22;3827;49.928;8.548;2023-09-30T09:52:19;18.20;99.90
7572;DHT22;3827;49.928;8.548;2023-09-30T09:54:46;18.00;99.90
7572;DHT22;3827;49.928;8.548;2023-09-30T09:57:16;18.20;99.90
7572;DHT22;3827;49.928;8.548;2023-09-30T09:59:44;18.00;99.90
7572;DHT22;3827;49.928;8.548;2023-09-30T10:02:13;18.20;99.90
7572;DHT22;3827;49.928;8.548;2023-09-30T10:04:41;18.20;99.90
7572;DHT22;3827;49.928;8.548;2023-09-30T10:07:11;18.50;99.90
7572;DHT22;3827;49.928;8.548;2023-09-30T10:09:43;18.80;99.90
7572;DHT22;3827;49.928;8.548;2023-09-30T10:12:12;18.40;99.90
7572;DHT22;3827;49.928;8.548;2023-09-30T10:14:40;18.30;99.90
7572;DHT22;3827;49.928;8.548;2023-09-30T10:17:07;18.60;99.90
7572;DHT22;3827;49.928;8.548;2023-09-30T10:19:34;18.60;99.90
7572;DHT22;3827;49.928;8.548;2023-09-30T10:22:20;18.70;99.90
7572;DHT22;3827;49.928;8.548;2023-09-30T10:24:47;18.20;99.90
7572;DHT22;3827;49.928;8.548;2023-09-30T10:27:34;18.40;99.90
7572;DHT22;3827;49.928;8.548;2023-09-30T10:30:08;18.70;99.90
7572;DHT22;3827;49.928;8.548;2023-09-30T10:33:12;18.70;99.90
7572;DHT22;3827;49.928;8.548;2023-09-30T10:35:47;18.60;99.90
7572;DHT22;3827;49.928;8.548;2023-09-30T10:38:40;19.30;99.90
7572;DHT22;3827;49.928;8.548;2023-09-30T10:41:07;19.30;99.90
7572;DHT22;3827;49.928;8.548;2023-09-30T10:43:35;19.50;99.90
7572;DHT22;3827;49.928;8.548;2023-09-30T10:46:04;19.40;99.90
7572;DHT22;3827;49.928;8.548;2023-09-30T10:48:36;19.30;99.90
7572;DHT22;3827;49.928;8.548;2023-09-30T10:51:13;19.40;99.90
7572;DHT22;3827;49.928;8.548;2023-09-30T10:53:45;19.60;99.90
7572;DHT22;3827;49.928;8.548;2023-09-30T10:56:13;19.70;99.90
7572;DHT22;3827;49.928;8.548;2023-09-30T10:58:41;20.50;99.90
7572;DHT22;3827;49.928;8.548;2023-09-30T11:01:10;20.90;99.90
7572;DHT22;3827;49.928;8.548;2023-09-30T11:03:38;21.00;99.90
7572;DHT22;3827;49.928;8.548;2023-09-30T11:06:06;21.10;99.90
7572;DHT22;3827;49.928;8.548;2023-09-30T11:08:33;21.30;99.90
7572;DHT22;3827;49.928;8.548;2023-09-30T11:11:01;21.10;99.90
7572;DHT22;3827;49.928;8.548;2023-09-30T11:13:32;20.70;99.90
7572;DHT22;3827;49.928;8.548;2023-09-30T11:16:01;20.80;99.90
7572;DHT22;3827;49.928;8.548;2023-09-30T11:18:29;20.80;99.90
7572;DHT22;3827;49.928;8.548;2023-09-30T11:21:04;20.70;99.90
7572;DHT22;3827;49.928;8.548;2023-09-30T11:23:31;20.70;99.90
7572;DHT22;3827;49.928;8.548;2023-09-30T11:25:58;20.90;99.90
7572;DHT22;3827;49.928;8.548;2023-09-30T11:28:25;20.90;99.90
7572;DHT22;3827;49.928;8.548;2023-09-30T11:31:01;21.00;99.90
7572;DHT22;3827;49.928;8.548;2023-09-30T11:33:30;21.10;99.90
7572;DHT22;3827;49.928;8.548;2023-09-30T11:36:00;21.10;99.90
7572;DHT22;3827;49.928;8.548;2023-09-30T11:38:27;20.80;99.90
7572;DHT22;3827;49.928;8.548;2023-09-30T11:40:58;20.10;99.90
7572;DHT22;3827;49.928;8.548;2023-09-30T11:43:25;20.00;99.90
7572;DHT22;3827;49.928;8.548;2023-09-30T11:45:53;20.10;99.90
7572;DHT22;3827;49.928;8.548;2023-09-30T11:48:31;20.50;99.90
7572;DHT22;3827;49.928;8.548;2023-09-30T11:50:59;21.10;99.90
7572;DHT22;3827;49.928;8.548;2023-09-30T11:53:28;21.40;99.90
7572;DHT22;3827;49.928;8.548;2023-09-30T11:55:56;21.20;99.90
7572;DHT22;3827;49.928;8.548;2023-09-30T11:58:25;21.00;99.90
7572;DHT22;3827;49.928;8.548;2023-09-30T12:00:53;21.10;99.90
7572;DHT22;3827;49.928;8.548;2023-09-30T12:03:20;20.60;99.90
7572;DHT22;3827;49.928;8.548;2023-09-30T12:05:49;20.80;99.90
7572;DHT22;3827;49.928;8.548;2023-09-30T12:08:16;20.60;99.90
7572;DHT22;3827;49.928;8.548;2023-09-30T12:10:44;21.40;99.90
7572;DHT22;3827;49.928;8.548;2023-09-30T12:13:11;21.10;99.90
7572;DHT22;3827;49.928;8.548;2023-09-30T12:15:38;21.30;99.90
7572;DHT22;3827;49.928;8.548;2023-09-30T12:18:05;21.40;99.90
7572;DHT22;3827;49.928;8.548;2023-09-30T12:20:32;21.60;99.90
7572;DHT22;3827;49.928;8.548;2023-09-30T12:23:01;21.80;99.90
7572;DHT22;3827;49.928;8.548;2023-09-30T12:25:30;21.20;99.90
7572;DHT22;3827;49.928;8.548;2023-09-30T12:27:59;21.20;99.90
7572;DHT22;3827;49.928;8.548;2023-09-30T12:30:25;21.40;99.90
7572;DHT22;3827;49.928;8.548;2023-09-30T12:32:52;22.00;99.90
7572;DHT22;3827;49.928;8.548;2023-09-30T12:35:20;21.30;99.90
7572;DHT22;3827;49.928;8.548;2023-09-30T12:37:47;21.40;99.90
7572;DHT22;3827;49.928;8.548;2023-09-30T12:40:15;21.60;99.90
7572;DHT22;3827;49.928;8.548;2023-09-30T12:42:43;21.80;99.90
7572;DHT22;3827;49.928;8.548;2023-09-30T12:45:10;22.30;99.90
7572;DHT22;3827;49.928;8.548;2023-09-30T12:47:38;22.50;99.90
7572;DHT22;3827;49.928;8.548;2023-09-30T12:50:06;22.50;99.90
7572;DHT22;3827;49.928;8.548;2023-09-30T12:52:35;21.80;99.90
7572;DHT22;3827;49.928;8.548;2023-09-30T12:55:02;22.20;99.90
7572;DHT22;3827;49.928;8.548;2023-09-30T12:57:31;22.60;99.90
7572;DHT22;3827;49.928;8.548;2023-09-30T12:59:58;21.70;99.90
7572;DHT22;3827;49.928;8.548;2023-09-30T13:02:25;21.10;99.90
7572;DHT22;3827;49.928;8.548;2023-09-30T13:04:52;21.00;99.90
7572;DHT22;3827;49.928;8.548;2023-09-30T13:07:20;22.00;99.90
7572;DHT22;3827;49.928;8.548;2023-09-30T13:09:46;22.50;99.90
7572;DHT22;3827;49.928;8.548;2023-09-30T13:12:14;22.90;99.90
7572;DHT22;3827;49.928;8.548;2023-09-30T13:14:43;22.70;99.90
7572;DHT22;3827;49.928;8.548;2023-09-30T13:17:10;22.00;99.90
7572;DHT22;3827;49.928;8.548;2023-09-30T13:19:39;21.80;99.90
7572;DHT22;3827;49.928;8.548;2023-09-30T13:22:07;22.30;99.90
7572;DHT22;3827;49.928;8.548;2023-09-30T13:24:33;22.90;99.90
7572;DHT22;3827;49.928;8.548;2023-09-30T13:27:05;22.10;99.90
7572;DHT22;3827;49.928;8.548;2023-09-30T13:29:31;22.20;99.90
7572;DHT22;3827;49.928;8.548;2023-09-30T13:31:59;22.80;99.90
7572;DHT22;3827;49.928;8.548;2023-09-30T13:34:26;23.30;99.90
7572;DHT22;3827;49.928;8.548;2023-09-30T13:36:54;23.00;99.90
7572;DHT22;3827;49.928;8.548;2023-09-30T13:39:21;21.70;99.90
7572;DHT22;3827;49.928;8.548;2023-09-30T13:41:49;21.80;99.90
7572;DHT22;3827;49.928;8.548;2023-09-30T13:44:16;21.30;99.90
7572;DHT22;3827;49.928;8.548;2023-09-30T13:46:43;21.50;99.90
7572;DHT22;3827;49.928;8.548;2023-09-30T13:49:12;21.60;99.90
7572;DHT22;3827;49.928;8.548;2023-09-30T13:51:39;21.30;99.90
7572;DHT22;3827;49.928;8.548;2023-09-30T13:54:06;21.30;99.90
7572;DHT22;3827;49.928;8.548;2023-09-30T13:56:33;20.80;99.90
7572;DHT22;3827;49.928;8.548;2023-09-30T13:59:00;20.80;99.90
7572;DHT22;3827;49.928;8.548;2023-09-30T14:01:27;20.50;99.90
7572;DHT22;3827;49.928;8.548;2023-09-30T14:03:53;22.00;99.90
7572;DHT22;3827;49.928;8.548;2023-09-30T14:06:24;21.70;99.90
7572;DHT22;3827;49.928;8.548;2023-09-30T14:08:51;21.70;99.90
7572;DHT22;3827;49.928;8.548;2023-09-30T14:11:18;21.80;99.90
7572;DHT22;3827;49.928;8.548;2023-09-30T14:13:45;21.90;99.90
7572;DHT22;3827;49.928;8.548;2023-09-30T14:16:12;21.40;99.90
7572;DHT22;3827;49.928;8.548;2023-09-30T14:18:38;20.80;99.90
7572;DHT22;3827;49.928;8.548;2023-09-30T14:21:05;20.90;99.90
7572;DHT22;3827;49.928;8.548;2023-09-30T14:23:35;21.00;99.90
7572;DHT22;3827;49.928;8.548;2023-09-30T14:26:03;21.20;99.90
7572;DHT22;3827;49.928;8.548;2023-09-30T14:28:36;20.80;99.90
7572;DHT22;3827;49.928;8.548;2023-09-30T14:31:03;20.80;99.90
7572;DHT22;3827;49.928;8.548;2023-09-30T14:33:30;20.60;99.90
7572;DHT22;3827;49.928;8.548;2023-09-30T14:35:57;20.70;99.90
7572;DHT22;3827;49.928;8.548;2023-09-30T14:38:23;20.90;99.90
7572;DHT22;3827;49.928;8.548;2023-09-30T14:40:52;20.70;99.90
7572;DHT22;3827;49.928;8.548;2023-09-30T14:43:19;20.40;99.90
7572;DHT22;3827;49.928;8.548;2023-09-30T14:45:45;20.70;99.90
7572;DHT22;3827;49.928;8.548;2023-09-30T14:48:12;20.80;99.90
7572;DHT22;3827;49.928;8.548;2023-09-30T14:50:48;20.60;99.90
7572;DHT22;3827;49.928;8.548;2023-09-30T14:53:15;20.30;99.90
7572;DHT22;3827;49.928;8.548;2023-09-30T14:55:42;20.10;99.90
7572;DHT22;3827;49.928;8.548;2023-09-30T14:58:10;20.00;99.90
7572;DHT22;3827;49.928;8.548;2023-09-30T15:00:37;19.90;99.90
7572;DHT22;3827;49.928;8.548;2023-09-30T15:03:04;19.80;99.90
7572;DHT22;3827;49.928;8.548;2023-09-30T15:05:31;19.80;99.90
7572;DHT22;3827;49.928;8.548;2023-09-30T15:07:58;19.80;99.90
7572;DHT22;3827;49.928;8.548;2023-09-30T15:10:27;19.90;99.90
7572;DHT22;3827;49.928;8.548;2023-09-30T15:12:54;20.00;99.90
7572;DHT22;3827;49.928;8.548;2023-09-30T15:15:22;19.90;99.90
7572;DHT22;3827;49.928;8.548;2023-09-30T15:17:49;19.90;99.90
7572;DHT22;3827;49.928;8.548;2023-09-30T15:20:15;19.80;99.90
7572;DHT22;3827;49.928;8.548;2023-09-30T15:22:43;19.80;99.90
7572;DHT22;3827;49.928;8.548;2023-09-30T15:25:10;19.90;99.90
7572;DHT22;3827;49.928;8.548;2023-09-30T15:27:36;19.80;99.90
7572;DHT22;3827;49.928;8.548;2023-09-30T15:30:04;19.70;99.90
7572;DHT22;3827;49.928;8.548;2023-09-30T15:32:34;19.70;99.90
7572;DHT22;3827;49.928;8.548;2023-09-30T15:35:00;19.80;99.90
7572;DHT22;3827;49.928;8.548;2023-09-30T15:37:27;19.80;99.90
7572;DHT22;3827;49.928;8.548;2023-09-30T15:39:54;19.80;99.90
7572;DHT22;3827;49.928;8.548;2023-09-30T15:42:21;19.80;99.90
7572;DHT22;3827;49.928;8.548;2023-09-30T15:44:47;19.70;99.90
7572;DHT22;3827;49.928;8.548;2023-09-30T15:47:19;19.60;99.90
7572;DHT22;3827;49.928;8.548;2023-09-30T15:49:47;19.60;99.90
7572;DHT22;3827;49.928;8.548;2023-09-30T15:52:14;19.50;99.90
7572;DHT22;3827;49.928;8.548;2023-09-30T15:54:41;19.30;99.90
7572;DHT22;3827;49.928;8.548;2023-09-30T15:57:07;19.30;99.90
7572;DHT22;3827;49.928;8.548;2023-09-30T15:59:34;19.20;99.90
7572;DHT22;3827;49.928;8.548;2023-09-30T16:02:01;19.10;99.90
7572;DHT22;3827;49.928;8.548;2023-09-30T16:04:28;19.00;99.90
7572;DHT22;3827;49.928;8.548;2023-09-30T16:06:56;18.90;99.90